sensor_id;sensor_type;location;lat;lon;timestamp;pressure;altitude;pressure_sealevel;temperature;humidity
25232;BME280;13176;51.140;6.290;2023-01-28T00:00:53;102100.91;;;7.53;70.07
25232;BME280;13176;51.140;6.290;2023-01-28T00:03:20;102088.75;;;7.52;70.10
25232;BME280;13176;51.140;6.290;2023-01-28T00:05:46;102087.06;;;7.54;70.24
25232;BME280;13176;51.140;6.290;2023-01-28T00:08:13;102074.59;;;7.38;70.26
25232;BME280;13176;51.140;6.290;2023-01-28T00:10:41;102101.03;;;7.59;70.05
25232;BME280;13176;51.140;6.290;2023-01-28T00:13:11;102130.63;;;7.67;70.31
25232;BME280;13176;51.140;6.290;2023-01-28T00:15:39;102135.94;;;7.73;70.24
25232;BME280;13176;51.140;6.290;2023-01-28T00:18:06;102116.47;;;7.53;70.34
25232;BME280;13176;51.140;6.290;2023-01-28T00:20:32;102039.38;;;7.09;70.09
25232;BME280;13176;51.140;6.290;2023-01-28T00:23:00;102029.91;;;7.12;70.18
25232;BME280;13176;51.140;6.290;2023-01-28T00:25:28;102075.44;;;7.35;70.57
25232;BME280;13176;51.140;6.290;2023-01-28T00:27:54;102070.53;;;7.49;70.04
25232;BME280;13176;51.140;6.290;2023-01-28T00:30:21;101977.66;;;6.94;70.10
25232;BME280;13176;51.140;6.290;2023-01-28T00:32:48;102093.31;;;7.63;70.63
25232;BME280;13176;51.140;6.290;2023-01-28T00:35:14;102084.25;;;7.43;70.43
25232;BME280;13176;51.140;6.290;2023-01-28T00:37:44;102104.47;;;7.58;70.52
25232;BME280;13176;51.140;6.290;2023-01-28T00:40:11;102074.59;;;7.38;70.71
25232;BME280;13176;51.140;6.290;2023-01-28T00:42:37;102043.00;;;7.17;70.71
25232;BME280;13176;51.140;6.290;2023-01-28T00:45:04;102092.00;;;7.42;70.81
25232;BME280;13176;51.140;6.290;2023-01-28T00:47:30;102031.84;;;7.21;70.65
25232;BME280;13176;51.140;6.290;2023-01-28T00:49:57;102086.00;;;7.44;70.80
25232;BME280;13176;51.140;6.290;2023-01-28T00:52:23;101974.06;;;6.88;70.04
25232;BME280;13176;51.140;6.290;2023-01-28T00:54:49;102066.66;;;7.30;69.92
25232;BME280;13176;51.140;6.290;2023-01-28T00:57:16;102091.13;;;7.41;70.21
25232;BME280;13176;51.140;6.290;2023-01-28T00:59:42;102005.97;;;6.84;69.75
25232;BME280;13176;51.140;6.290;2023-01-28T01:02:09;102103.44;;;7.51;69.50
25232;BME280;13176;51.140;6.290;2023-01-28T01:04:39;101981.63;;;6.79;69.94
25232;BME280;13176;51.140;6.290;2023-01-28T01:07:06;102007.72;;;6.85;69.27
25232;BME280;13176;51.140;6.290;2023-01-28T01:09:32;102078.56;;;7.21;70.01
25232;BME280;13176;51.140;6.290;2023-01-28T01:11:59;102088.28;;;7.31;69.90
25232;BME280;13176;51.140;6.290;2023-01-28T01:14:25;102105.69;;;7.35;69.68
25232;BME280;13176;51.140;6.290;2023-01-28T01:16:51;102097.88;;;7.33;69.16
25232;BME280;13176;51.140;6.290;2023-01-28T01:19:18;102097.66;;;7.23;69.12
25232;BME280;13176;51.140;6.290;2023-01-28T01:21:44;102128.03;;;7.27;69.20
25232;BME280;13176;51.140;6.290;2023-01-28T01:24:15;102086.00;;;7.04;69.75
25232;BME280;13176;51.140;6.290;2023-01-28T01:26:42;102079.13;;;7.08;69.65
25232;BME280;13176;51.140;6.290;2023-01-28T01:29:08;102093.25;;;7.19;69.26
25232;BME280;13176;51.140;6.290;2023-01-28T01:31:35;102082.72;;;7.13;69.74
25232;BME280;13176;51.140;6.290;2023-01-28T01:34:01;102092.31;;;7.17;69.07
25232;BME280;13176;51.140;6.290;2023-01-28T01:36:28;102091.69;;;7.27;69.17
25232;BME280;13176;51.140;6.290;2023-01-28T01:38:54;102100.97;;;7.17;69.19
25232;BME280;13176;51.140;6.290;2023-01-28T01:41:31;102082.72;;;7.13;69.69
25232;BME280;13176;51.140;6.290;2023-01-28T01:44:04;102121.41;;;7.41;69.22
25232;BME280;13176;51.140;6.290;2023-01-28T01:46:37;102108.88;;;7.22;69.31
25232;BME280;13176;51.140;6.290;2023-01-28T01:49:06;102126.38;;;7.32;69.39
25232;BME280;13176;51.140;6.290;2023-01-28T01:51:36;102107.06;;;7.18;69.21
25232;BME280;13176;51.140;6.290;2023-01-28T01:54:03;102114.94;;;7.22;69.53
25232;BME280;13176;51.140;6.290;2023-01-28T01:56:36;102116.72;;;7.25;69.47
25232;BME280;13176;51.140;6.290;2023-01-28T01:59:04;101970.13;;;6.31;69.55
25232;BME280;13176;51.140;6.290;2023-01-28T02:01:33;102070.66;;;6.78;69.65
25232;BME280;13176;51.140;6.290;2023-01-28T02:04:04;102113.72;;;7.07;69.69
25232;BME280;13176;51.140;6.290;2023-01-28T02:06:33;102149.38;;;7.15;69.95
25232;BME280;13176;51.140;6.290;2023-01-28T02:09:01;101993.63;;;6.37;70.03
25232;BME280;13176;51.140;6.290;2023-01-28T02:11:31;102045.03;;;6.56;69.65
25232;BME280;13176;51.140;6.290;2023-01-28T02:14:01;102116.66;;;6.85;69.88
25232;BME280;13176;51.140;6.290;2023-01-28T02:16:31;102126.13;;;6.83;69.75
25232;BME280;13176;51.140;6.290;2023-01-28T02:18:57;102111.16;;;6.73;69.14
25232;BME280;13176;51.140;6.290;2023-01-28T02:27:09;102131.16;;;6.78;68.91
25232;BME280;13176;51.140;6.290;2023-01-28T02:32:26;102108.22;;;6.60;69.43
25232;BME280;13176;51.140;6.290;2023-01-28T02:35:15;102153.66;;;6.79;68.76
25232;BME280;13176;51.140;6.290;2023-01-28T02:37:51;102126.50;;;6.64;69.23
25232;BME280;13176;51.140;6.290;2023-01-28T02:40:22;102101.97;;;6.52;69.18
25232;BME280;13176;51.140;6.290;2023-01-28T02:42:50;102124.44;;;6.51;69.21
25232;BME280;13176;51.140;6.290;2023-01-28T02:45:26;102157.44;;;6.58;68.81
25232;BME280;13176;51.140;6.290;2023-01-28T02:48:14;102020.78;;;5.86;69.30
25232;BME280;13176;51.140;6.290;2023-01-28T02:51:00;102122.81;;;6.56;69.03
25232;BME280;13176;51.140;6.290;2023-01-28T02:53:35;102089.25;;;6.28;68.63
25232;BME280;13176;51.140;6.290;2023-01-28T02:56:27;102148.19;;;6.68;68.18
25232;BME280;13176;51.140;6.290;2023-01-28T03:04:46;102175.41;;;6.51;68.78
25232;BME280;13176;51.140;6.290;2023-01-28T03:07:16;102172.06;;;6.55;68.86
25232;BME280;13176;51.140;6.290;2023-01-28T03:09:45;102048.31;;;5.54;69.31
25232;BME280;13176;51.140;6.290;2023-01-28T03:12:25;102165.94;;;6.51;68.69
25232;BME280;13176;51.140;6.290;2023-01-28T03:15:46;102165.84;;;6.48;68.45
25232;BME280;13176;51.140;6.290;2023-01-28T03:18:48;102130.16;;;6.07;68.24
25232;BME280;13176;51.140;6.290;2023-01-28T03:21:41;102163.53;;;6.60;68.09
25232;BME280;13176;51.140;6.290;2023-01-28T03:24:31;102140.41;;;6.34;67.25
25232;BME280;13176;51.140;6.290;2023-01-28T03:27:20;102149.31;;;6.12;67.44
25232;BME280;13176;51.140;6.290;2023-01-28T03:30:15;102159.75;;;6.15;67.57
25232;BME280;13176;51.140;6.290;2023-01-28T03:33:03;102141.06;;;5.96;68.18
25232;BME280;13176;51.140;6.290;2023-01-28T03:35:48;102159.66;;;6.12;67.67
25232;BME280;13176;51.140;6.290;2023-01-28T03:38:34;102110.91;;;5.68;68.20
25232;BME280;13176;51.140;6.290;2023-01-28T03:41:09;102146.03;;;6.19;68.16
25232;BME280;13176;51.140;6.290;2023-01-28T03:43:36;102154.44;;;6.11;67.46
25232;BME280;13176;51.140;6.290;2023-01-28T03:46:03;102173.00;;;6.26;67.41
25232;BME280;13176;51.140;6.290;2023-01-28T03:48:31;102121.84;;;5.88;67.18
25232;BME280;13176;51.140;6.290;2023-01-28T03:50:58;102151.94;;;6.14;67.00
25232;BME280;13176;51.140;6.290;2023-01-28T03:53:25;102190.88;;;6.48;66.32
25232;BME280;13176;51.140;6.290;2023-01-28T03:55:53;102184.56;;;6.38;66.32
25232;BME280;13176;51.140;6.290;2023-01-28T03:58:22;102106.25;;;5.86;66.41
25232;BME280;13176;51.140;6.290;2023-01-28T04:00:53;102168.75;;;6.29;67.09
25232;BME280;13176;51.140;6.290;2023-01-28T04:03:20;102185.00;;;6.53;66.21
25232;BME280;13176;51.140;6.290;2023-01-28T04:06:05;102167.66;;;6.20;65.88
25232;BME280;13176;51.140;6.290;2023-01-28T04:08:32;102164.78;;;6.09;65.63
25232;BME280;13176;51.140;6.290;2023-01-28T04:10:58;102109.41;;;5.76;65.76
25232;BME280;13176;51.140;6.290;2023-01-28T04:13:44;102187.75;;;6.28;66.35
25232;BME280;13176;51.140;6.290;2023-01-28T04:16:13;102195.50;;;6.28;65.35
25232;BME280;13176;51.140;6.290;2023-01-28T04:18:41;102187.34;;;6.13;66.29
25232;BME280;13176;51.140;6.290;2023-01-28T04:21:08;102192.03;;;5.97;66.05
25232;BME280;13176;51.140;6.290;2023-01-28T04:23:35;102177.47;;;6.02;65.87
25232;BME280;13176;51.140;6.290;2023-01-28T04:26:01;102182.03;;;5.79;65.83
25232;BME280;13176;51.140;6.290;2023-01-28T04:28:29;102175.25;;;5.84;65.78
25232;BME280;13176;51.140;6.290;2023-01-28T04:30:55;102133.19;;;5.63;65.81
25232;BME280;13176;51.140;6.290;2023-01-28T04:33:22;102196.41;;;5.99;65.95
25232;BME280;13176;51.140;6.290;2023-01-28T04:35:48;102190.94;;;5.89;65.65
25232;BME280;13176;51.140;6.290;2023-01-28T04:38:15;102154.91;;;5.68;65.68
25232;BME280;13176;51.140;6.290;2023-01-28T04:40:41;102178.72;;;5.85;65.45
25232;BME280;13176;51.140;6.290;2023-01-28T04:43:07;102193.38;;;5.84;66.15
25232;BME280;13176;51.140;6.290;2023-01-28T04:45:34;102167.03;;;5.69;65.50
25232;BME280;13176;51.140;6.290;2023-01-28T04:48:00;102193.84;;;5.99;65.83
25232;BME280;13176;51.140;6.290;2023-01-28T04:50:27;102164.31;;;5.94;65.30
25232;BME280;13176;51.140;6.290;2023-01-28T04:52:53;102172.38;;;6.05;65.50
25232;BME280;13176;51.140;6.290;2023-01-28T04:55:19;102153.97;;;5.94;65.82
25232;BME280;13176;51.140;6.290;2023-01-28T04:57:46;102206.72;;;6.27;65.25
25232;BME280;13176;51.140;6.290;2023-01-28T05:00:14;102117.75;;;5.66;65.27
25232;BME280;13176;51.140;6.290;2023-01-28T05:02:40;102140.47;;;5.76;65.01
25232;BME280;13176;51.140;6.290;2023-01-28T05:05:07;102184.56;;;6.07;65.69
25232;BME280;13176;51.140;6.290;2023-01-28T05:07:34;102180.13;;;6.03;65.42
25232;BME280;13176;51.140;6.290;2023-01-28T05:10:01;102150.28;;;5.86;65.75
25232;BME280;13176;51.140;6.290;2023-01-28T05:12:27;102157.75;;;6.05;65.21
25232;BME280;13176;51.140;6.290;2023-01-28T05:14:55;102178.38;;;6.02;65.59
25232;BME280;13176;51.140;6.290;2023-01-28T05:17:21;102201.31;;;6.18;65.34
25232;BME280;13176;51.140;6.290;2023-01-28T05:19:48;102190.59;;;6.06;64.52
25232;BME280;13176;51.140;6.290;2023-01-28T05:22:14;102181.72;;;5.98;64.30
25232;BME280;13176;51.140;6.290;2023-01-28T05:24:40;102181.22;;;5.80;64.99
25232;BME280;13176;51.140;6.290;2023-01-28T05:27:07;102193.47;;;5.87;64.88
25232;BME280;13176;51.140;6.290;2023-01-28T05:29:33;102166.31;;;5.75;64.70
25232;BME280;13176;51.140;6.290;2023-01-28T05:32:00;102108.19;;;5.36;64.56
25232;BME280;13176;51.140;6.290;2023-01-28T05:34:26;102171.09;;;5.89;64.59
25232;BME280;13176;51.140;6.290;2023-01-28T05:36:52;102190.31;;;5.97;63.87
25232;BME280;13176;51.140;6.290;2023-01-28T05:39:19;102184.97;;;5.91;62.61
25232;BME280;13176;51.140;6.290;2023-01-28T05:41:45;102102.25;;;5.39;62.87
25232;BME280;13176;51.140;6.290;2023-01-28T05:44:11;102202.22;;;5.91;62.88
25232;BME280;13176;51.140;6.290;2023-01-28T05:46:38;102180.19;;;5.77;63.06
25232;BME280;13176;51.140;6.290;2023-01-28T05:49:10;102179.13;;;5.70;62.71
25232;BME280;13176;51.140;6.290;2023-01-28T05:51:38;102176.16;;;5.58;62.44
25232;BME280;13176;51.140;6.290;2023-01-28T05:54:06;102233.69;;;5.76;62.01
25232;BME280;13176;51.140;6.290;2023-01-28T05:56:32;102220.97;;;5.82;62.52
25232;BME280;13176;51.140;6.290;2023-01-28T05:59:00;102210.84;;;5.91;62.66
25232;BME280;13176;51.140;6.290;2023-01-28T06:01:26;102217.97;;;5.98;62.66
25232;BME280;13176;51.140;6.290;2023-01-28T06:03:53;102195.00;;;5.81;62.66
25232;BME280;13176;51.140;6.290;2023-01-28T06:06:19;102243.97;;;6.01;61.99
25232;BME280;13176;51.140;6.290;2023-01-28T06:08:45;102240.38;;;5.96;61.55
25232;BME280;13176;51.140;6.290;2023-01-28T06:11:12;102176.13;;;5.57;61.89
25232;BME280;13176;51.140;6.290;2023-01-28T06:13:38;102203.78;;;5.86;62.14
25232;BME280;13176;51.140;6.290;2023-01-28T06:16:07;102216.31;;;6.00;62.08
25232;BME280;13176;51.140;6.290;2023-01-28T06:18:34;102150.13;;;5.80;62.16
25232;BME280;13176;51.140;6.290;2023-01-28T06:21:00;102233.06;;;6.11;62.76
25232;BME280;13176;51.140;6.290;2023-01-28T06:23:26;102190.63;;;5.78;62.35
25232;BME280;13176;51.140;6.290;2023-01-28T06:25:54;102241.16;;;6.23;61.75
25232;BME280;13176;51.140;6.290;2023-01-28T06:28:21;102234.81;;;6.12;62.78
25232;BME280;13176;51.140;6.290;2023-01-28T06:30:48;102200.41;;;6.18;62.50
25232;BME280;13176;51.140;6.290;2023-01-28T06:33:14;102194.84;;;6.04;61.74
25232;BME280;13176;51.140;6.290;2023-01-28T06:35:41;102202.88;;;6.13;62.11
25232;BME280;13176;51.140;6.290;2023-01-28T06:38:08;102207.88;;;6.07;61.69
25232;BME280;13176;51.140;6.290;2023-01-28T06:40:34;102220.50;;;6.26;61.85
25232;BME280;13176;51.140;6.290;2023-01-28T06:43:01;102234.28;;;6.25;61.43
25232;BME280;13176;51.140;6.290;2023-01-28T06:45:28;102251.38;;;6.48;61.64
25232;BME280;13176;51.140;6.290;2023-01-28T06:47:54;102200.03;;;6.04;60.97
25232;BME280;13176;51.140;6.290;2023-01-28T06:50:20;102231.78;;;6.27;61.25
25232;BME280;13176;51.140;6.290;2023-01-28T06:52:47;102221.50;;;6.00;61.35
25232;BME280;13176;51.140;6.290;2023-01-28T06:55:13;102247.59;;;6.36;61.55
25232;BME280;13176;51.140;6.290;2023-01-28T06:57:40;102243.91;;;6.28;61.78
25232;BME280;13176;51.140;6.290;2023-01-28T07:00:09;102224.25;;;6.06;60.65
25232;BME280;13176;51.140;6.290;2023-01-28T07:02:36;102251.19;;;6.11;61.67
25232;BME280;13176;51.140;6.290;2023-01-28T07:05:03;102203.47;;;6.05;62.18
25232;BME280;13176;51.140;6.290;2023-01-28T07:07:29;102200.41;;;6.18;62.32
25232;BME280;13176;51.140;6.290;2023-01-28T07:09:58;102199.50;;;6.16;61.70
25232;BME280;13176;51.140;6.290;2023-01-28T07:12:25;102236.69;;;6.18;61.45
25232;BME280;13176;51.140;6.290;2023-01-28T07:14:51;102220.09;;;6.11;61.43
25232;BME280;13176;51.140;6.290;2023-01-28T07:17:17;102259.25;;;6.51;61.54
25232;BME280;13176;51.140;6.290;2023-01-28T07:19:44;102230.03;;;6.27;61.67
25232;BME280;13176;51.140;6.290;2023-01-28T07:22:10;102264.09;;;6.39;60.36
25232;BME280;13176;51.140;6.290;2023-01-28T07:24:37;102227.03;;;6.12;60.71
25232;BME280;13176;51.140;6.290;2023-01-28T07:27:03;102202.16;;;5.89;59.41
25232;BME280;13176;51.140;6.290;2023-01-28T07:29:29;102244.19;;;6.09;60.16
25232;BME280;13176;51.140;6.290;2023-01-28T07:31:56;102207.34;;;5.89;60.39
25232;BME280;13176;51.140;6.290;2023-01-28T07:34:22;102230.78;;;6.23;60.30
25232;BME280;13176;51.140;6.290;2023-01-28T07:36:49;102242.81;;;6.21;60.75
25232;BME280;13176;51.140;6.290;2023-01-28T07:39:15;102248.94;;;6.23;60.84
25232;BME280;13176;51.140;6.290;2023-01-28T07:41:41;102230.28;;;6.05;60.90
25232;BME280;13176;51.140;6.290;2023-01-28T07:44:08;102221.59;;;6.03;60.94
25232;BME280;13176;51.140;6.290;2023-01-28T07:46:34;102225.00;;;6.02;60.48
25232;BME280;13176;51.140;6.290;2023-01-28T07:49:01;102216.31;;;6.00;60.23
25232;BME280;13176;51.140;6.290;2023-01-28T07:51:27;102208.63;;;5.75;60.43
25232;BME280;13176;51.140;6.290;2023-01-28T07:53:53;102280.69;;;6.16;60.04
25232;BME280;13176;51.140;6.290;2023-01-28T07:56:20;102222.13;;;5.65;59.13
25232;BME280;13176;51.140;6.290;2023-01-28T07:58:48;102233.59;;;5.73;59.57
25232;BME280;13176;51.140;6.290;2023-01-28T08:01:15;102227.00;;;5.57;59.31
25232;BME280;13176;51.140;6.290;2023-01-28T08:03:41;102253.28;;;5.68;59.27
25232;BME280;13176;51.140;6.290;2023-01-28T08:06:07;102183.63;;;5.22;59.61
25232;BME280;13176;51.140;6.290;2023-01-28T08:08:34;102224.81;;;5.41;59.84
25232;BME280;13176;51.140;6.290;2023-01-28T08:11:08;102239.03;;;5.55;59.29
25232;BME280;13176;51.140;6.290;2023-01-28T08:13:36;102260.03;;;5.63;59.20
25232;BME280;13176;51.140;6.290;2023-01-28T08:16:03;102307.16;;;5.78;59.86
25232;BME280;13176;51.140;6.290;2023-01-28T08:18:30;102257.00;;;5.50;58.93
25232;BME280;13176;51.140;6.290;2023-01-28T08:20:58;102266.31;;;5.44;59.11
25232;BME280;13176;51.140;6.290;2023-01-28T08:23:25;102310.56;;;5.77;59.33
25232;BME280;13176;51.140;6.290;2023-01-28T08:25:52;102305.41;;;5.77;59.61
25232;BME280;13176;51.140;6.290;2023-01-28T08:28:20;102312.69;;;5.90;58.55
25232;BME280;13176;51.140;6.290;2023-01-28T08:30:46;102207.66;;;5.18;58.15
25232;BME280;13176;51.140;6.290;2023-01-28T08:33:14;102299.25;;;5.75;58.45
25232;BME280;13176;51.140;6.290;2023-01-28T08:35:41;102269.34;;;5.58;58.90
25232;BME280;13176;51.140;6.290;2023-01-28T08:38:09;102297.25;;;5.93;58.97
25232;BME280;13176;51.140;6.290;2023-01-28T08:40:36;102289.72;;;5.74;58.79
25232;BME280;13176;51.140;6.290;2023-01-28T08:43:04;102316.03;;;5.86;58.17
25232;BME280;13176;51.140;6.290;2023-01-28T08:45:30;102171.00;;;5.04;59.01
25232;BME280;13176;51.140;6.290;2023-01-28T08:48:02;102181.66;;;5.13;59.22
25232;BME280;13176;51.140;6.290;2023-01-28T08:50:34;102288.75;;;5.71;58.44
25232;BME280;13176;51.140;6.290;2023-01-28T08:53:05;102338.03;;;5.99;59.43
25232;BME280;13176;51.140;6.290;2023-01-28T08:55:32;102331.47;;;5.83;59.10
25232;BME280;13176;51.140;6.290;2023-01-28T08:58:04;102326.38;;;5.86;58.69
25232;BME280;13176;51.140;6.290;2023-01-28T09:00:32;102275.06;;;5.49;57.63
25232;BME280;13176;51.140;6.290;2023-01-28T09:02:58;102324.81;;;5.91;56.68
25232;BME280;13176;51.140;6.290;2023-01-28T09:05:25;102337.03;;;5.95;57.20
25232;BME280;13176;51.140;6.290;2023-01-28T09:07:52;102371.63;;;5.97;58.84
25232;BME280;13176;51.140;6.290;2023-01-28T09:10:18;102291.53;;;5.51;58.01
25232;BME280;13176;51.140;6.290;2023-01-28T09:12:48;102220.09;;;5.03;58.69
25232;BME280;13176;51.140;6.290;2023-01-28T09:15:14;102319.31;;;5.30;58.33
25232;BME280;13176;51.140;6.290;2023-01-28T09:17:41;102367.41;;;5.74;58.15
25232;BME280;13176;51.140;6.290;2023-01-28T09:20:07;102263.44;;;5.10;57.72
25232;BME280;13176;51.140;6.290;2023-01-28T09:22:34;102340.91;;;5.57;57.35
25232;BME280;13176;51.140;6.290;2023-01-28T09:25:01;102292.75;;;5.35;56.85
25232;BME280;13176;51.140;6.290;2023-01-28T09:27:27;102383.13;;;6.05;57.05
25232;BME280;13176;51.140;6.290;2023-01-28T09:29:53;102364.69;;;5.96;56.95
25232;BME280;13176;51.140;6.290;2023-01-28T09:32:20;102347.00;;;5.83;57.58
25232;BME280;13176;51.140;6.290;2023-01-28T09:34:46;102364.41;;;5.87;57.70
25232;BME280;13176;51.140;6.290;2023-01-28T09:37:12;102339.16;;;5.80;57.90
25232;BME280;13176;51.140;6.290;2023-01-28T09:39:39;102313.25;;;5.56;57.54
25232;BME280;13176;51.140;6.290;2023-01-28T09:45:15;102399.59;;;6.07;57.24
25232;BME280;13176;51.140;6.290;2023-01-28T09:47:57;102353.16;;;5.87;56.97
25232;BME280;13176;51.140;6.290;2023-01-28T09:50:37;102404.38;;;6.22;56.70
25232;BME280;13176;51.140;6.290;2023-01-28T09:53:10;102385.81;;;6.08;57.88
25232;BME280;13176;51.140;6.290;2023-01-28T09:55:42;102357.34;;;6.10;57.83
25232;BME280;13176;51.140;6.290;2023-01-28T09:58:12;102344.06;;;5.99;56.53
25232;BME280;13176;51.140;6.290;2023-01-28T10:09:24;102390.66;;;6.52;56.51
25232;BME280;13176;51.140;6.290;2023-01-28T10:12:02;102389.31;;;6.66;57.75
25232;BME280;13176;51.140;6.290;2023-01-28T10:14:55;102393.72;;;6.69;57.53
25232;BME280;13176;51.140;6.290;2023-01-28T10:17:47;102362.50;;;6.66;56.87
25232;BME280;13176;51.140;6.290;2023-01-28T10:20:23;102368.47;;;6.63;56.00
25232;BME280;13176;51.140;6.290;2023-01-28T10:23:48;102359.16;;;6.40;56.01
25232;BME280;13176;51.140;6.290;2023-01-28T10:26:23;102344.53;;;6.42;56.28
25232;BME280;13176;51.140;6.290;2023-01-28T10:28:56;102170.91;;;5.28;56.03
25232;BME280;13176;51.140;6.290;2023-01-28T10:31:30;102328.31;;;6.21;55.98
25232;BME280;13176;51.140;6.290;2023-01-28T10:33:57;102348.44;;;6.58;56.87
25232;BME280;13176;51.140;6.290;2023-01-28T10:36:25;102259.19;;;6.20;56.34
25232;BME280;13176;51.140;6.290;2023-01-28T10:38:51;102337.97;;;6.84;56.92
25232;BME280;13176;51.140;6.290;2023-01-28T10:41:20;102325.91;;;6.55;56.04
25232;BME280;13176;51.140;6.290;2023-01-28T10:43:48;102381.25;;;6.85;55.29
25232;BME280;13176;51.140;6.290;2023-01-28T10:46:19;102383.84;;;6.57;55.98
25232;BME280;13176;51.140;6.290;2023-01-28T10:48:54;102364.88;;;6.58;56.52
25232;BME280;13176;51.140;6.290;2023-01-28T10:51:38;102382.94;;;6.27;56.98
25232;BME280;13176;51.140;6.290;2023-01-28T10:54:22;102359.31;;;6.17;56.05
25232;BME280;13176;51.140;6.290;2023-01-28T10:56:51;102393.97;;;6.48;56.82
25232;BME280;13176;51.140;6.290;2023-01-28T10:59:25;102309.91;;;6.40;56.78
25232;BME280;13176;51.140;6.290;2023-01-28T11:01:55;102377.19;;;6.65;57.56
25232;BME280;13176;51.140;6.290;2023-01-28T11:04:28;102398.00;;;6.68;55.09
25232;BME280;13176;51.140;6.290;2023-01-28T11:06:59;102408.47;;;6.71;55.24
25232;BME280;13176;51.140;6.290;2023-01-28T11:09:31;102368.31;;;6.01;56.36
25232;BME280;13176;51.140;6.290;2023-01-28T11:12:12;102410.59;;;6.56;55.53
25232;BME280;13176;51.140;6.290;2023-01-28T11:14:49;102346.81;;;5.77;56.04
25232;BME280;13176;51.140;6.290;2023-01-28T11:17:17;102394.41;;;6.07;55.94
25232;BME280;13176;51.140;6.290;2023-01-28T11:19:44;102381.47;;;6.07;56.60
25232;BME280;13176;51.140;6.290;2023-01-28T11:22:37;102427.63;;;6.20;57.02
25232;BME280;13176;51.140;6.290;2023-01-28T11:25:18;102328.31;;;5.41;57.04
25232;BME280;13176;51.140;6.290;2023-01-28T11:27:49;102369.13;;;6.00;57.55
25232;BME280;13176;51.140;6.290;2023-01-28T11:30:37;102410.41;;;6.22;56.87
25232;BME280;13176;51.140;6.290;2023-01-28T11:33:21;102416.84;;;6.07;56.80
25232;BME280;13176;51.140;6.290;2023-01-28T11:35:57;102374.28;;;5.99;56.67
25232;BME280;13176;51.140;6.290;2023-01-28T11:38:29;102321.56;;;5.72;57.14
25232;BME280;13176;51.140;6.290;2023-01-28T11:40:57;102383.22;;;5.57;58.29
25232;BME280;13176;51.140;6.290;2023-01-28T11:43:26;102372.81;;;5.80;58.22
25232;BME280;13176;51.140;6.290;2023-01-28T11:48:41;102387.94;;;6.21;58.08
25232;BME280;13176;51.140;6.290;2023-01-28T11:51:28;102388.28;;;6.32;57.12
25232;BME280;13176;51.140;6.290;2023-01-28T11:56:49;102379.31;;;6.22;56.88
25232;BME280;13176;51.140;6.290;2023-01-28T11:59:27;102389.56;;;6.18;57.56
25232;BME280;13176;51.140;6.290;2023-01-28T12:10:23;102341.00;;;5.59;57.23
25232;BME280;13176;51.140;6.290;2023-01-28T12:13:28;102362.13;;;5.71;57.42
25232;BME280;13176;51.140;6.290;2023-01-28T12:21:45;102367.13;;;6.18;57.45
25232;BME280;13176;51.140;6.290;2023-01-28T12:24:34;102367.13;;;6.18;57.29
25232;BME280;13176;51.140;6.290;2023-01-28T12:27:40;102344.91;;;5.98;57.94
25232;BME280;13176;51.140;6.290;2023-01-28T12:30:45;102210.41;;;5.22;56.65
25232;BME280;13176;51.140;6.290;2023-01-28T12:39:09;102339.22;;;6.67;56.79
25232;BME280;13176;51.140;6.290;2023-01-28T12:41:47;102335.88;;;6.71;55.58
25232;BME280;13176;51.140;6.290;2023-01-28T12:44:33;102309.19;;;6.75;55.06
25232;BME280;13176;51.140;6.290;2023-01-28T12:47:05;102353.00;;;6.95;55.68
25232;BME280;13176;51.140;6.290;2023-01-28T12:49:38;102334.09;;;7.01;55.52
25232;BME280;13176;51.140;6.290;2023-01-28T12:52:22;102301.47;;;7.10;56.92
25232;BME280;13176;51.140;6.290;2023-01-28T12:55:13;102309.56;;;7.21;56.84
25232;BME280;13176;51.140;6.290;2023-01-28T12:57:42;102279.78;;;7.07;55.83
25232;BME280;13176;51.140;6.290;2023-01-28T13:00:27;102291.47;;;7.24;54.75
25232;BME280;13176;51.140;6.290;2023-01-28T13:03:08;102276.50;;;7.48;56.30
25232;BME280;13176;51.140;6.290;2023-01-28T13:05:43;102263.28;;;7.74;55.84
25232;BME280;13176;51.140;6.290;2023-01-28T13:08:24;102251.81;;;7.65;55.41
25232;BME280;13176;51.140;6.290;2023-01-28T13:10:51;102186.94;;;7.31;54.28
25232;BME280;13176;51.140;6.290;2023-01-28T13:15:45;102245.50;;;7.55;54.82
25232;BME280;13176;51.140;6.290;2023-01-28T13:18:32;102246.03;;;7.41;53.31
25232;BME280;13176;51.140;6.290;2023-01-28T13:21:00;102288.81;;;7.56;53.57
25232;BME280;13176;51.140;6.290;2023-01-28T13:26:30;102260.38;;;6.93;53.33
25232;BME280;13176;51.140;6.290;2023-01-28T13:29:08;102285.63;;;6.98;52.71
25232;BME280;13176;51.140;6.290;2023-01-28T13:31:44;102287.94;;;6.88;51.74
25232;BME280;13176;51.140;6.290;2023-01-28T13:34:34;102312.16;;;7.21;52.22
25232;BME280;13176;51.140;6.290;2023-01-28T13:37:23;102312.75;;;7.11;52.05
25232;BME280;13176;51.140;6.290;2023-01-28T13:42:29;102307.16;;;6.96;52.90
25232;BME280;13176;51.140;6.290;2023-01-28T13:45:06;102326.09;;;7.24;52.51
25232;BME280;13176;51.140;6.290;2023-01-28T13:47:35;102299.50;;;7.00;51.47
25232;BME280;13176;51.140;6.290;2023-01-28T13:50:12;102296.22;;;6.75;52.51
25232;BME280;13176;51.140;6.290;2023-01-28T13:52:51;102335.34;;;7.15;53.22
25232;BME280;13176;51.140;6.290;2023-01-28T13:55:22;102303.41;;;7.17;53.46
25232;BME280;13176;51.140;6.290;2023-01-28T13:58:42;102327.50;;;7.46;53.50
25232;BME280;13176;51.140;6.290;2023-01-28T14:13:01;102330.78;;;7.39;53.29
25232;BME280;13176;51.140;6.290;2023-01-28T14:18:36;102303.88;;;7.03;52.74
25232;BME280;13176;51.140;6.290;2023-01-28T14:21:16;102296.78;;;6.96;52.88
25232;BME280;13176;51.140;6.290;2023-01-28T14:23:46;102245.78;;;6.96;54.87
25232;BME280;13176;51.140;6.290;2023-01-28T14:26:33;102237.72;;;6.86;54.00
25232;BME280;13176;51.140;6.290;2023-01-28T14:31:37;102257.41;;;7.12;54.64
25232;BME280;13176;51.140;6.290;2023-01-28T14:36:43;102302.81;;;7.29;53.76
25232;BME280;13176;51.140;6.290;2023-01-28T14:39:29;102235.31;;;6.93;53.99
25232;BME280;13176;51.140;6.290;2023-01-28T14:41:58;102282.88;;;7.26;54.32